• Join FlightAware (Why Join?)
  • Login
  • US Flag 
06:03AM EDT


 

Airport Tracker/Info


-or-


 

Live Flight TrackerFlight Track Log ✈ LAN2605 ✈ 09-Oct-2013 ✈ KLAX - SPIM / LIM

Flight Track Log - Related Links

Times and Time Zones

All times are in EDT time to prevent confusion due to time zone crossing. See the LAN2605 flight status page for this flight to view local times or setup timezone preferences in your user account.

Time Position Orientation Groundspeed Altitude Reporting Facility
EDT Latitude Longitude Course Direction KTS MPH feet Rate Location/Type
03:28AM 33.9245 -118.4531 226° Southwest 210 242 1,900  Level FlightAware ADS-B (KCRQ)
03:29AM 33.8986 -118.4831 224° Southwest 235 270 2,900 1,800 Climbing FlightAware ADS-B (KCRQ)
03:29AM 33.8873 -118.4966 225° Southwest 252 290 3,400 2,220 Climbing FlightAware ADS-B (KCRQ)
03:30AM 33.8699 -118.5178 225° Southwest 261 300 4,300 2,760 Climbing FlightAware ADS-B (KCRQ)
03:30AM 33.8509 -118.5349 217° Southwest 264 304 5,300 2,880 Climbing FlightAware ADS-B (KCRQ)
03:30AM 33.8334 -118.5366 185° South 272 313 5,900 3,180 Climbing FlightAware ADS-B (KCRQ)
03:30AM 33.8081 -118.5314 170° South 273 314 7,000 3,240 Climbing FlightAware ADS-B (KCRQ)
03:31AM 33.7874 -118.5268 170° South 277 319 7,900 2,700 Climbing FlightAware ADS-B (KCRQ)
03:31AM 33.7640 -118.5217 170° South 286 329 8,700 2,580 Climbing FlightAware ADS-B (KCRQ)
03:31AM 33.7337 -118.5147 169° South 294 338 9,700 2,820 Climbing FlightAware ADS-B (KCRQ)
03:32AM 33.7168 -118.5046 154° Southeast 304 350 10,300 2,820 Climbing FlightAware ADS-B (KCRQ)
03:32AM 33.7124 -118.5000 139° Southeast 314 361 10,500 1,800 Climbing FlightAware ADS-B (KCRQ)
03:32AM 33.6992 -118.4773 125° Southeast 330 380 10,900 1,260 Climbing FlightAware ADS-B (KCRQ)
03:33AM 33.6766 -118.4020 110° East 378 435 11,700 1,320 Climbing FlightAware ADS-B (KCRQ)
03:33AM 33.6632 -118.3251 102° East 412 474 12,600 1,980 Climbing FlightAware ADS-B (KCRQ)
03:34AM 33.6504 -118.2479 101° East 425 489 14,000 2,400 Climbing FlightAware ADS-B (KCRQ)
03:34AM 33.6338 -118.1702 104° East 430 495 15,400 2,520 Climbing FlightAware ADS-B (KCRQ)
03:35AM 33.6047 -118.0933 114° Southeast 435 501 16,900 2,340 Climbing FlightAware ADS-B (KCRQ)
03:36AM 33.5676 -118.0087 118° Southeast 447 514 18,300 2,040 Climbing FlightAware ADS-B (KCRQ)
03:36AM 33.5273 -117.9174 118° Southeast 459 528 19,700 2,040 Climbing FlightAware ADS-B (KCRQ)
03:37AM 33.4863 -117.8250 118° Southeast 468 539 21,100 1,920 Climbing FlightAware ADS-B (KCRQ)
03:38AM 33.4481 -117.7396 118° Southeast 481 554 22,200 1,800 Climbing FlightAware ADS-B (KCRQ)
03:38AM 33.4142 -117.6640 118° Southeast 485 558 23,200 1,800 Climbing FlightAware ADS-B (KCRQ)
03:39AM 33.3719 -117.5697 118° Southeast 493 567 24,400 1,800 Climbing FlightAware ADS-B (KCRQ)
03:39AM 33.3355 -117.4890 118° Southeast 498 573 25,400 1,740 Climbing FlightAware ADS-B (KCRQ)
03:40AM 33.2790 -117.3639 118° Southeast 506 582 26,900 1,620 Climbing FlightAware ADS-B (KCRQ)
03:41AM 33.2438 -117.2846 118° Southeast 508 585 27,700 2,220 Climbing FlightAware ADS-B (KCRQ)
03:41AM 33.2067 -117.2014 118° Southeast 495 570 29,300 2,400 Climbing FlightAware ADS-B (KCRQ)
03:42AM 33.1676 -117.1138 118° Southeast 491 565 30,500 1,620 Climbing FlightAware ADS-B (KCRQ)
03:43AM 33.1255 -117.0202 118° Southeast 494 568 31,400 1,380 Climbing FlightAware ADS-B (KCRQ)
03:43AM 33.0780 -116.9140 118° Southeast 490 564 32,500 1,440 Climbing FlightAware
03:44AM 33.0612 -116.8771 119° Southeast 490 564 32,900 600 Climbing FlightAware ADS-B (KCRQ)
03:44AM 33.0276 -116.8030 118° Southeast 492 566 33,000 60 Climbing FlightAware ADS-B (KCRQ)
03:45AM 32.9660 -116.6660 118° Southeast 497 572 33,000  Level FlightAware
03:45AM 32.9520 -116.6360 119° Southeast 501 577 33,000  Level FlightAware ADS-B (KCRQ)
03:46AM 32.8967 -116.5143 118° Southeast 504 580 33,000  Level FlightAware ADS-B (KCRQ)
03:47AM 32.8523 -116.4168 118° Southeast 503 579 33,000  Level FlightAware ADS-B (KCRQ)
03:47AM 32.8120 -116.3300 119° Southeast 502 578 33,000  Level FlightAware
03:48AM 32.8073 -116.3186 116° Southeast 503 579 33,000  Level FlightAware ADS-B (KCRQ)
03:49AM 32.7320 -116.1540 119° Southeast 504 580 33,000  Level FlightAware
03:49AM 32.6950 -116.0730 118° Southeast 503 579 33,000  Level FlightAware
03:50AM 32.6540 -115.9860 119° Southeast 498 573 33,000  Level FlightAware
03:50AM 32.6170 -115.9060 119° Southeast 488 562 33,000  Level FlightAware
03:51AM 32.5800 -115.8260 119° Southeast 483 556 33,000  Level FlightAware
03:52AM 32.5400 -115.7390 119° Southeast 481 554 33,000  Level FlightAware
03:52AM 32.5040 -115.6630 119° Southeast 489 563 33,000  Level FlightAware
03:53AM 32.4660 -115.5800 118° Southeast 495 570 33,000  Level FlightAware
03:53AM 32.4250 -115.4930 119° Southeast 502 578 33,000  Level FlightAware
03:54AM 32.3840 -115.4060 119° Southeast 503 579 33,000  Level FlightAware
03:54AM 32.3490 -115.3320 119° Southeast 503 579 33,000  Level FlightAware
03:55AM 32.3080 -115.2430 119° Southeast 503 579 33,000  Level FlightAware
03:56AM 32.2570 -115.1370 120° Southeast 507 583 33,000  Level FlightAware
03:56AM 32.2230 -115.0630 118° Southeast 508 585 33,000  Level FlightAware
03:57AM 32.1830 -114.9800 120° Southeast 509 586 33,000  Level FlightAware
03:57AM 32.1430 -114.8950 119° Southeast 510 587 33,000  Level FlightAware
03:58AM 32.1020 -114.8110 120° Southeast 514 592 33,000  Level FlightAware
03:59AM 32.0610 -114.7250 119° Southeast 514 592 33,000  Level FlightAware
03:59AM 32.0210 -114.6390 119° Southeast 515 593 33,000  Level FlightAware
04:00AM 31.9800 -114.5540 120° Southeast 514 592 33,000  Level FlightAware
04:00AM 31.9390 -114.4690 120° Southeast 512 589 33,000  Level FlightAware
04:01AM 31.9000 -114.3880 120° Southeast 512 589 33,000  Level FlightAware
04:02AM 31.8630 -114.3100 119° Southeast 512 589 33,000  Level FlightAware
04:02AM 31.8270 -114.2350 119° Southeast 512 589 33,000  Level FlightAware
04:03AM 31.7920 -114.1600 119° Southeast 512 589 33,000  Level FlightAware
04:03AM 31.7570 -114.0860 119° Southeast 512 589 33,000  Level FlightAware
04:06AM 31.5831 -113.8239 128° Southeast  Level FlightAware Approximate
04:06AM 31.5860 -113.7430 128° Southeast 33,000  Level FlightAware
04:06AM 31.5490 -113.6670 120° Southeast 506 582 33,000  Level FlightAware
04:07AM 31.5140 -113.5940 119° Southeast 506 582 33,000  Level FlightAware
04:07AM 31.4790 -113.5180 118° Southeast 506 582 33,000  Level FlightAware
04:08AM 31.4440 -113.4450 119° Southeast 506 582 33,000  Level FlightAware
04:09AM 31.4090 -113.3710 119° Southeast 506 582 33,000  Level FlightAware
04:09AM 31.3360 -113.2570 127° Southeast 487 560 33,000  Level FlightAware
04:10AM 31.2820 -113.1790 129° Southeast 486 559 33,000  Level FlightAware
04:10AM 31.2060 -113.0720 130° Southeast 485 558 33,000  Level FlightAware
04:11AM 31.1560 -113.0000 129° Southeast 483 556 33,000  Level FlightAware
04:12AM 31.1070 -112.9300 129° Southeast 483 556 33,000  Level FlightAware
04:12AM 31.1110 -112.9380 300° West 154 177 33,000  Level FlightAware
04:12AM 31.0630 -112.8700 129° Southeast 483 556 33,000  Level FlightAware
04:13AM 31.0020 -112.7840 130° Southeast 483 556 33,000  Level FlightAware
04:13AM 30.9490 -112.7090 129° Southeast 484 557 33,000  Level FlightAware
04:14AM 30.9040 -112.6450 129° Southeast 484 557 33,000  Level FlightAware
04:15AM 30.8440 -112.5620 130° Southeast 484 557 33,000  Level FlightAware
04:15AM 30.7940 -112.4930 130° Southeast 483 556 33,000  Level FlightAware
04:16AM 30.7420 -112.4200 130° Southeast 482 555 33,000  Level FlightAware
04:16AM 30.7040 -112.3660 129° Southeast 484 557 33,000  Level FlightAware
04:17AM 30.6450 -112.2850 130° Southeast 482 555 33,000  Level FlightAware
04:18AM 30.5920 -112.2110 130° Southeast 482 555 33,000  Level FlightAware
04:18AM 30.5480 -112.1500 130° Southeast 483 556 33,000  Level FlightAware
04:19AM 30.4950 -112.0760 130° Southeast 486 559 33,000  Level FlightAware
04:19AM 30.4430 -112.0050 130° Southeast 487 560 33,000  Level FlightAware
04:20AM 30.3910 -111.9330 130° Southeast 489 563 33,000  Level FlightAware
04:20AM 30.3440 -111.8680 130° Southeast 491 565 33,000  Level FlightAware
04:21AM 30.2910 -111.7960 130° Southeast 493 567 33,000  Level FlightAware
04:22AM 30.2350 -111.7190 130° Southeast 493 567 33,000  Level FlightAware
04:22AM 30.1850 -111.6500 130° Southeast 494 568 33,000  Level FlightAware
04:23AM 30.1380 -111.5860 130° Southeast 496 571 33,000  Level FlightAware
04:23AM 30.0820 -111.5090 130° Southeast 497 572 33,000  Level FlightAware
04:24AM 30.0300 -111.4390 131° Southeast 499 574 33,000  Level FlightAware
04:25AM 29.9740 -111.3630 130° Southeast 501 577 33,000  Level FlightAware
04:25AM 29.9250 -111.2970 131° Southeast 501 577 33,000  Level FlightAware
04:26AM 29.8760 -111.2300 130° Southeast 501 577 33,000  Level FlightAware
04:26AM 29.8190 -111.1530 130° Southeast 501 577 33,000  Level FlightAware
04:27AM 29.7640 -111.0790 131° Southeast 501 577 33,000  Level FlightAware
04:27AM 29.7170 -111.0160 131° Southeast 500 575 33,000  Level FlightAware
04:28AM 29.6590 -110.9370 130° Southeast 500 575 33,000  Level FlightAware
04:29AM 29.6120 -110.8740 131° Southeast 500 575 33,000  Level FlightAware
04:29AM 29.5580 -110.8030 131° Southeast 495 570 33,000  Level FlightAware
04:30AM 29.5010 -110.7260 130° Southeast 492 566 33,000  Level FlightAware
04:30AM 29.4540 -110.6630 131° Southeast 490 564 33,000  Level FlightAware
04:31AM 29.4000 -110.5910 131° Southeast 491 565 33,000  Level FlightAware
04:32AM 29.3470 -110.5200 131° Southeast 494 568 33,000  Level FlightAware
04:32AM 29.2930 -110.4490 131° Southeast 494 568 33,000  Level FlightAware
04:33AM 29.2410 -110.3800 131° Southeast 494 568 33,000  Level FlightAware
04:33AM 29.1920 -110.3160 131° Southeast 493 567 33,000  Level FlightAware
04:34AM 29.1400 -110.2450 130° Southeast 493 567 33,000  Level FlightAware
04:35AM 29.0950 -110.1840 130° Southeast 493 567 33,000  Level FlightAware
04:35AM 29.0500 -110.1230 130° Southeast 493 567 33,000  Level FlightAware
04:36AM 29.0060 -110.0610 129° Southeast 493 567 33,000  Level FlightAware
04:36AM 28.9600 -109.9990 130° Southeast 493 567 33,000  Level FlightAware
04:37AM 28.9150 -109.9380 130° Southeast 493 567 33,000  Level FlightAware
04:38AM 28.8700 -109.8770 130° Southeast 493 567 33,000  Level FlightAware
04:38AM 28.8250 -109.8150 130° Southeast 493 567 33,000  Level FlightAware
04:39AM 28.7800 -109.7540 130° Southeast 493 567 33,000  Level FlightAware
04:39AM 28.7350 -109.6930 130° Southeast 493 567 33,000  Level FlightAware
04:40AM 28.6900 -109.6330 131° Southeast 493 567 33,000  Level FlightAware
04:41AM 28.6450 -109.5720 130° Southeast 493 567 33,000  Level FlightAware
04:41AM 28.5990 -109.5090 130° Southeast 493 567 33,000  Level FlightAware
04:42AM 28.5530 -109.4460 130° Southeast 493 567 33,000  Level FlightAware
04:42AM 28.5080 -109.3860 130° Southeast 493 567 33,000  Level FlightAware
04:43AM 28.4620 -109.3230 130° Southeast 493 567 33,000  Level FlightAware
04:46AM 28.1880 -109.1315 148° Southeast  Level FlightAware Approximate
04:47AM 28.0917 -109.0332 132° Southeast  Level Estimated
04:48AM 28.0079 -108.9213 130° Southeast  Level FlightAware Approximate
04:49AM 27.9114 -108.8234 131° Southeast  Level Estimated
04:50AM 27.8275 -108.7118 130° Southeast  Level FlightAware Approximate
04:51AM 27.7434 -108.6003 130° Southeast  Level FlightAware Approximate
04:52AM 27.6593 -108.4891 130° Southeast  Level FlightAware Approximate
04:53AM 27.5751 -108.3780 131° Southeast  Level FlightAware Approximate
04:53AM 27.3860 -107.9940 131° Southeast 505 581 33,000  Level FlightAware
04:54AM 27.3410 -107.9360 131° Southeast 506 582 33,000  Level FlightAware
04:54AM 27.2940 -107.8750 131° Southeast 506 582 33,000  Level FlightAware
04:55AM 27.2470 -107.8140 131° Southeast 506 582 33,000  Level FlightAware
04:55AM 27.1660 -107.7190 134° Southeast 505 581 33,000  Level FlightAware
04:56AM 27.1090 -107.6490 132° Southeast 505 581 33,000  Level FlightAware
04:57AM 27.0520 -107.5780 132° Southeast 505 581 33,000  Level FlightAware
04:57AM 26.9960 -107.5090 132° Southeast 504 580 33,000  Level FlightAware
04:58AM 26.9460 -107.4470 132° Southeast 504 580 33,000  Level FlightAware
04:58AM 26.8830 -107.3690 132° Southeast 505 581 33,000  Level FlightAware
04:59AM 26.8210 -107.2930 132° Southeast 505 581 33,000  Level FlightAware
04:59AM 26.7740 -107.2350 132° Southeast 505 581 33,000  Level FlightAware
05:00AM 26.7150 -107.1620 132° Southeast 504 580 33,000  Level FlightAware
05:01AM 26.6580 -107.0930 133° Southeast 504 580 33,000  Level FlightAware
05:01AM 26.6020 -107.0230 132° Southeast 504 580 33,000  Level FlightAware
05:02AM 26.5510 -106.9610 133° Southeast 503 579 33,000  Level FlightAware
05:03AM 26.4630 -106.8540 133° Southeast 503 579 33,000  Level FlightAware
05:03AM 26.4150 -106.7960 133° Southeast 503 579 33,000  Level FlightAware
05:04AM 26.3490 -106.7160 133° Southeast 504 580 33,000  Level FlightAware
05:05AM 26.2990 -106.6550 132° Southeast 504 580 33,000  Level FlightAware
05:05AM 26.2300 -106.5710 132° Southeast 504 580 33,000  Level FlightAware
05:06AM 26.1770 -106.5070 133° Southeast 504 580 33,000  Level FlightAware
05:06AM 26.1200 -106.4380 133° Southeast 504 580 33,000  Level FlightAware
05:07AM 26.0640 -106.3700 133° Southeast 503 579 33,000  Level FlightAware
05:08AM 26.0110 -106.3070 133° Southeast 503 579 33,000  Level FlightAware
05:08AM 25.9550 -106.2400 133° Southeast 503 579 33,000  Level FlightAware
05:09AM 25.8980 -106.1710 133° Southeast 503 579 33,000  Level FlightAware
05:09AM 25.8440 -106.1070 133° Southeast 503 579 33,000  Level FlightAware
05:10AM 25.7870 -106.0380 133° Southeast 503 579 33,000  Level FlightAware
05:11AM 25.7290 -105.9690 133° Southeast 504 580 33,000  Level FlightAware
05:11AM 25.6760 -105.9050 133° Southeast 505 581 33,000  Level FlightAware
05:12AM 25.6180 -105.8370 133° Southeast 504 580 33,000  Level FlightAware
05:12AM 25.5680 -105.7770 133° Southeast 503 579 33,000  Level FlightAware
05:13AM 25.5110 -105.7090 133° Southeast 501 577 33,000  Level FlightAware
05:13AM 25.4530 -105.6400 133° Southeast 501 577 33,000  Level FlightAware
05:14AM 25.3960 -105.5720 133° Southeast 502 578 33,000  Level FlightAware
05:15AM 25.3430 -105.5100 133° Southeast 500 575 33,000  Level FlightAware
05:15AM 25.2890 -105.4470 133° Southeast 501 577 33,000  Level FlightAware
05:16AM 25.2280 -105.3750 133° Southeast 502 578 33,000  Level FlightAware
05:16AM 25.1740 -105.3110 133° Southeast 503 579 33,000  Level FlightAware
05:17AM 25.1170 -105.2430 133° Southeast 502 578 33,000  Level FlightAware
05:17AM 25.0660 -105.1840 134° Southeast 503 579 33,000  Level FlightAware
05:18AM 25.0060 -105.1130 133° Southeast 502 578 33,000  Level FlightAware
05:19AM 24.9550 -105.0530 133° Southeast 501 577 33,000  Level FlightAware
05:19AM 24.8960 -104.9850 134° Southeast 501 577 33,000  Level FlightAware
05:20AM 24.8440 -104.9240 133° Southeast 500 575 33,000  Level FlightAware
05:21AM 24.7750 -104.8430 133° Southeast 499 574 33,000  Level FlightAware
05:21AM 24.7250 -104.7850 133° Southeast 499 574 33,000  Level FlightAware
05:22AM 24.6750 -104.7270 133° Southeast 499 574 33,000  Level FlightAware
05:22AM 24.6190 -104.6610 133° Southeast 498 573 33,000  Level FlightAware
05:23AM 24.5540 -104.5870 134° Southeast 498 573 33,000  Level FlightAware
05:24AM 24.4810 -104.5020 133° Southeast 498 573 33,000  Level FlightAware
05:24AM 24.4110 -104.4210 133° Southeast 498 573 33,000  Level FlightAware
05:25AM 24.3470 -104.3480 134° Southeast 498 573 33,000  Level FlightAware
05:26AM 24.2960 -104.2880 133° Southeast 497 572 33,000  Level FlightAware
05:26AM 24.2410 -104.2250 134° Southeast 497 572 33,000  Level FlightAware
05:27AM 24.1820 -104.1570 134° Southeast 497 572 33,000  Level FlightAware
05:27AM 24.1240 -104.0910 134° Southeast 497 572 33,000  Level FlightAware
05:28AM 24.0520 -104.0090 134° Southeast 498 573 33,000  Level FlightAware
05:29AM 23.9670 -103.9110 133° Southeast 499 574 33,000  Level FlightAware
05:30AM 23.9100 -103.8460 134° Southeast 499 574 33,000  Level FlightAware
05:30AM 23.8530 -103.7810 134° Southeast 499 574 33,000  Level FlightAware
05:31AM 23.8040 -103.7250 134° Southeast 499 574 33,000  Level FlightAware
05:31AM 23.7440 -103.6570 134° Southeast 499 574 33,000  Level FlightAware
05:32AM 23.6890 -103.5950 134° Southeast 499 574 33,000  Level FlightAware
05:33AM 23.6290 -103.5270 134° Southeast 499 574 33,000  Level FlightAware
05:33AM 23.5790 -103.4690 133° Southeast 499 574 33,000  Level FlightAware
05:34AM 23.5190 -103.4020 134° Southeast 499 574 33,000  Level FlightAware
05:34AM 23.4690 -103.3450 134° Southeast 500 575 33,000  Level FlightAware
05:35AM 23.4170 -103.2870 134° Southeast 500 575 33,000  Level FlightAware
05:36AM 23.3680 -103.2320 134° Southeast 500 575 33,000  Level FlightAware
05:36AM 23.2900 -103.1430 134° Southeast 500 575 33,000  Level FlightAware
05:37AM 23.2320 -103.0790 135° Southeast 500 575 33,000  Level FlightAware
05:37AM 23.1850 -103.0280 135° Southeast 498 573 33,000  Level FlightAware
05:38AM 23.1280 -102.9700 137° Southeast 498 573 33,000  Level FlightAware
05:38AM 23.0760 -102.9180 137° Southeast 498 573 33,000  Level FlightAware
05:39AM 22.9920 -102.8580 147° Southeast 496 571 33,000  Level FlightAware
05:40AM 22.9260 -102.8010 141° Southeast 496 571 33,000  Level FlightAware
05:40AM 22.8720 -102.7530 141° Southeast 496 571 33,000  Level FlightAware
05:41AM 22.8160 -102.7030 141° Southeast 496 571 33,000  Level FlightAware
05:41AM 22.7610 -102.6550 141° Southeast 496 571 33,000  Level FlightAware
05:42AM 22.7070 -102.6070 141° Southeast 496 571 33,000  Level FlightAware
05:43AM 22.6520 -102.5600 142° Southeast 496 571 33,000  Level FlightAware
05:43AM 22.5970 -102.5120 141° Southeast 496 571 33,000  Level FlightAware
05:44AM 22.4630 -102.4020 143° Southeast 491 565 33,000  Level FlightAware
05:44AM 22.4070 -102.3530 141° Southeast 491 565 33,000  Level FlightAware
05:45AM 22.3300 -102.2870 142° Southeast 489 563 33,000  Level FlightAware
05:46AM 22.2700 -102.2360 142° Southeast 488 562 33,000  Level FlightAware
05:46AM 22.2040 -102.1790 141° Southeast 487 560 33,000  Level FlightAware
05:47AM 22.1370 -102.1220 142° Southeast 487 560 33,000  Level FlightAware
05:48AM 22.0750 -102.0690 142° Southeast 486 559 33,000  Level FlightAware
05:48AM 22.0170 -102.0200 142° Southeast 486 559 33,000  Level FlightAware
05:49AM 21.9540 -101.9660 142° Southeast 486 559 33,000  Level FlightAware
05:49AM 21.8900 -101.9120 142° Southeast 486 559 33,000  Level FlightAware
05:50AM 21.8280 -101.8590 142° Southeast 485 558 33,000  Level FlightAware
05:50AM 21.7730 -101.8130 142° Southeast 485 558 33,000  Level FlightAware
05:51AM 21.7070 -101.7560 141° Southeast 484 557 33,000  Level FlightAware
05:52AM 21.6490 -101.7080 142° Southeast 483 556 33,000  Level FlightAware
05:52AM 21.5840 -101.6520 141° Southeast 481 554 33,000  Level FlightAware
05:53AM 21.5210 -101.6000 142° Southeast 481 554 33,000  Level FlightAware
05:53AM 21.4570 -101.5450 141° Southeast 481 554 33,000  Level FlightAware
05:54AM 21.4050 -101.5010 142° Southeast 481 554 33,000  Level FlightAware
05:55AM 21.3370 -101.4450 143° Southeast 481 554 33,000  Level FlightAware
05:55AM 21.2760 -101.3930 142° Southeast 481 554 33,000  Level FlightAware
05:56AM 21.2220 -101.3470 142° Southeast 482 555 33,000  Level FlightAware
05:56AM 21.1570 -101.2930 142° Southeast 482 555 33,000  Level FlightAware
05:57AM 21.0920 -101.2390 142° Southeast 481 554 33,000  Level FlightAware
05:57AM 21.0360 -101.1910 141° Southeast 481 554 33,000  Level FlightAware
05:58AM 20.9740 -101.1400 142° Southeast 481 554 33,000  Level FlightAware
05:59AM 20.9100 -101.0860 142° Southeast 481 554 33,000  Level FlightAware
05:59AM 20.8470 -101.0340 142° Southeast 480 552 33,000  Level FlightAware
06:00AM 20.7900 -100.9860 142° Southeast 480 552 33,000  Level FlightAware
06:00AM 20.7280 -100.9350 142° Southeast 480 552 33,000  Level FlightAware
06:01AM 20.6610 -100.8790 142° Southeast 481 554 33,000  Level FlightAware
06:02AM 20.6020 -100.8300 142° Southeast 480 552 33,000  Level FlightAware
06:02AM 20.5470 -100.7840 142° Southeast 480 552 33,000  Level FlightAware
06:03AM 20.4790 -100.7280 142° Southeast 480 552 33,000  Level FlightAware
06:03AM 20.4260 -100.6840 142° Southeast 480 552 33,000  Level FlightAware
06:04AM 20.3560 -100.6260 142° Southeast 481 554 33,000  Level FlightAware
06:05AM 20.2690 -100.5540 142° Southeast 480 552 33,000  Level FlightAware
06:05AM 20.1930 -100.4910 142° Southeast 480 552 33,000  Level FlightAware
06:06AM 20.1220 -100.4320 142° Southeast 480 552 33,000  Level FlightAware
06:07AM 20.0470 -100.3710 143° Southeast 479 551 33,000  Level FlightAware
06:07AM 19.9890 -100.3240 143° Southeast 479 551 33,000  Level FlightAware
06:08AM 19.9290 -100.2740 142° Southeast 479 551 33,000  Level FlightAware
06:09AM 19.8610 -100.2180 142° Southeast 479 551 33,000  Level FlightAware
06:09AM 19.7970 -100.1660 143° Southeast 479 551 33,000  Level FlightAware
06:10AM 19.7410 -100.1200 142° Southeast 479 551 33,000  Level FlightAware
06:10AM 19.6870 -100.0760 143° Southeast 479 551 33,000  Level FlightAware
06:11AM 19.6210 -100.0220 142° Southeast 478 550 33,000  Level FlightAware
06:12AM 19.5440 -99.9580 142° Southeast 478 550 33,000  Level FlightAware
06:12AM 19.4870 -99.9120 143° Southeast 478 550 33,000  Level FlightAware
06:13AM 19.4210 -99.8590 143° Southeast 478 550 33,000  Level FlightAware
06:13AM 19.3670 -99.8130 141° Southeast 478 550 33,000  Level FlightAware
06:14AM 19.3130 -99.7690 142° Southeast 478 550 33,000  Level FlightAware
06:15AM 19.2180 -99.6930 143° Southeast 479 551 33,000  Level FlightAware
06:15AM 19.1420 -99.6310 142° Southeast 481 554 33,000  Level FlightAware
06:16AM 19.0740 -99.5760 143° Southeast 482 555 33,000  Level FlightAware
06:17AM 19.0120 -99.5260 143° Southeast 482 555 33,000  Level FlightAware
06:17AM 18.9530 -99.4780 142° Southeast 482 555 33,000  Level FlightAware
06:18AM 18.8880 -99.4260 143° Southeast 482 555 33,000  Level FlightAware
06:18AM 18.8240 -99.3750 143° Southeast 482 555 33,000 120 Level FlightAware
06:19AM 18.7610 -99.3230 142° Southeast 484 557 33,200 360 Climbing FlightAware
06:19AM 18.7430 -99.3020 132° Southeast 485 558 33,300 720 Climbing FlightAware
06:20AM 18.7000 -99.2370 125° Southeast 485 558 33,800 720 Climbing FlightAware
06:20AM 18.6610 -99.1620 119° Southeast 481 554 34,200 660 Climbing FlightAware
06:21AM 18.6230 -99.0870 118° Southeast 481 554 34,600 660 Climbing FlightAware
06:21AM 18.5830 -99.0120 119° Southeast 484 557 35,000 300 Climbing FlightAware
06:22AM 18.5470 -98.9430 119° Southeast 486 559 35,000  Level FlightAware
06:23AM 18.5090 -98.8710 119° Southeast 487 560 35,000  Level FlightAware
06:23AM 18.4720 -98.8010 119° Southeast 486 559 35,000  Level FlightAware
06:24AM 18.4370 -98.7330 118° Southeast 485 558 35,000  Level FlightAware
06:24AM 18.4040 -98.6680 118° Southeast 485 558 35,000  Level FlightAware
06:25AM 18.3720 -98.6040 118° Southeast 485 558 35,000  Level FlightAware
06:26AM 18.3390 -98.5400 119° Southeast 485 558 35,000  Level FlightAware
06:26AM 18.3070 -98.4760 118° Southeast 485 558 35,000  Level FlightAware
06:27AM 18.2750 -98.4120 118° Southeast 485 558 35,000  Level FlightAware
06:27AM 18.2430 -98.3480 118° Southeast 485 558 35,000  Level FlightAware
06:28AM 18.2110 -98.2850 118° Southeast 485 558 35,000  Level FlightAware
06:29AM 18.1780 -98.2210 118° Southeast 485 558 35,000  Level FlightAware
06:29AM 18.1460 -98.1570 118° Southeast 485 558 35,000  Level FlightAware
06:30AM 18.1140 -98.0930 118° Southeast 485 558 35,000  Level FlightAware
06:30AM 18.0820 -98.0290 118° Southeast 485 558 35,000  Level FlightAware
06:31AM 18.0490 -97.9660 119° Southeast 485 558 35,000  Level FlightAware
06:32AM 18.0160 -97.9000 118° Southeast 485 558 35,000  Level FlightAware
06:32AM 17.9840 -97.8360 118° Southeast 485 558 35,000  Level FlightAware
06:33AM 17.9520 -97.7730 118° Southeast 485 558 35,000  Level FlightAware
06:36AM 17.7530 -97.4791 125° Southeast  Level FlightAware Approximate
06:37AM 17.6856 -97.3606 119° Southeast  Level FlightAware Approximate
06:38AM 17.6221 -97.2421 119° Southeast  Level FlightAware Approximate
06:39AM 17.5586 -97.1236 119° Southeast  Level FlightAware Approximate
06:40AM 17.4950 -97.0053 119° Southeast  Level FlightAware Approximate
06:41AM 17.4314 -96.8870 119° Southeast  Level FlightAware Approximate
06:42AM 17.3676 -96.7688 119° Southeast  Level FlightAware Approximate
06:43AM 17.3039 -96.6507 119° Southeast  Level FlightAware Approximate
06:44AM 17.2400 -96.5326 120° Southeast  Level FlightAware Approximate
06:45AM 17.1761 -96.4147 120° Southeast  Level FlightAware Approximate
06:46AM 17.1122 -96.2967 119° Southeast  Level FlightAware Approximate
06:47AM 17.0483 -96.1788 120° Southeast  Level FlightAware Approximate
06:48AM 16.9844 -96.0610 120° Southeast  Level FlightAware Approximate
06:49AM 16.9204 -95.9432 120° Southeast  Level FlightAware Approximate
06:50AM 16.8563 -95.8255 120° Southeast  Level FlightAware Approximate
06:51AM 16.7922 -95.7079 120° Southeast  Level FlightAware Approximate
06:52AM 16.7281 -95.5904 120° Southeast  Level FlightAware Approximate
06:53AM 16.6638 -95.4729 120° Southeast  Level FlightAware Approximate
06:54AM 16.5995 -95.3556 120° Southeast  Level FlightAware Approximate
06:55AM 16.5352 -95.2383 120° Southeast  Level FlightAware Approximate
06:56AM 16.4708 -95.1210 120° Southeast  Level FlightAware Approximate
06:57AM 16.3891 -95.0173 134° Southeast  Level FlightAware Approximate
06:58AM 16.2994 -94.9199 134° Southeast  Level FlightAware Approximate
06:59AM 16.2096 -94.8227 134° Southeast  Level FlightAware Approximate
07:00AM 16.1197 -94.7255 134° Southeast  Level FlightAware Approximate
07:01AM 16.0298 -94.6285 134° Southeast  Level FlightAware Approximate
07:02AM 15.9398 -94.5315 134° Southeast  Level FlightAware Approximate
07:03AM 15.8498 -94.4346 134° Southeast  Level FlightAware Approximate
07:04AM 15.7598 -94.3378 134° Southeast  Level FlightAware Approximate
07:05AM 15.6697 -94.2411 134° Southeast  Level FlightAware Approximate
07:06AM 15.5796 -94.1444 134° Southeast  Level FlightAware Approximate
07:07AM 15.4895 -94.0479 134° Southeast  Level FlightAware Approximate
07:08AM 15.3993 -93.9514 134° Southeast  Level FlightAware Approximate
07:09AM 15.3090 -93.8550 134° Southeast  Level FlightAware Approximate
07:10AM 15.2187 -93.7587 134° Southeast  Level FlightAware Approximate
07:11AM 15.1284 -93.6625 134° Southeast  Level FlightAware Approximate
07:12AM 15.0403 -93.5641 133° Southeast  Level FlightAware Approximate
07:13AM 14.9525 -93.4656 133° Southeast  Level FlightAware Approximate
07:14AM 14.8646 -93.3671 133° Southeast  Level FlightAware Approximate
07:15AM 14.7767 -93.2686 133° Southeast  Level FlightAware Approximate
07:16AM 14.6887 -93.1703 133° Southeast  Level FlightAware Approximate
07:17AM 14.6007 -93.0720 133° Southeast  Level FlightAware Approximate
07:18AM 14.5127 -92.9738 133° Southeast  Level FlightAware Approximate
07:19AM 14.4247 -92.8757 133° Southeast  Level FlightAware Approximate
07:20AM 14.3365 -92.7776 133° Southeast  Level FlightAware Approximate
07:21AM 14.2543 -92.6754 117° Southeast  Level FlightAware Approximate
07:22AM 14.1547 -92.5913 142° Southeast  Level FlightAware Approximate
07:23AM 14.0519 -92.5100 143° Southeast  Level FlightAware Approximate
07:24AM 13.9491 -92.4288 143° Southeast  Level FlightAware Approximate
07:25AM 13.8462 -92.3476 143° Southeast  Level FlightAware Approximate
07:26AM 13.7434 -92.2666 143° Southeast  Level FlightAware Approximate
07:27AM 13.6404 -92.1856 143° Southeast  Level FlightAware Approximate
07:28AM 13.5375 -92.1047 143° Southeast  Level FlightAware Approximate
07:29AM 13.4346 -92.0238 143° Southeast  Level FlightAware Approximate
07:30AM 13.3316 -91.9430 143° Southeast  Level FlightAware Approximate
07:31AM 13.2285 -91.8623 143° Southeast  Level FlightAware Approximate
07:32AM 13.1255 -91.7817 143° Southeast  Level FlightAware Approximate
07:33AM 13.0224 -91.7011 143° Southeast  Level FlightAware Approximate
07:34AM 12.9193 -91.6206 143° Southeast  Level FlightAware Approximate
07:35AM 12.8162 -91.5402 143° Southeast  Level FlightAware Approximate
07:36AM 12.7131 -91.4598 143° Southeast  Level FlightAware Approximate
07:37AM 12.6099 -91.3795 143° Southeast  Level FlightAware Approximate
07:38AM 12.5067 -91.2992 143° Southeast  Level FlightAware Approximate
07:39AM 12.4035 -91.2190 143° Southeast  Level FlightAware Approximate
07:40AM 12.3003 -91.1389 143° Southeast  Level FlightAware Approximate
07:41AM 12.1970 -91.0589 143° Southeast  Level FlightAware Approximate
07:42AM 12.0937 -90.9789 143° Southeast  Level FlightAware Approximate
07:43AM 11.9904 -90.8989 143° Southeast  Level FlightAware Approximate
07:44AM 11.8871 -90.8191 143° Southeast  Level FlightAware Approximate
07:45AM 11.7838 -90.7393 143° Southeast  Level FlightAware Approximate
07:46AM 11.6804 -90.6595 143° Southeast  Level FlightAware Approximate
07:47AM 11.5770 -90.5798 143° Southeast  Level FlightAware Approximate
07:48AM 11.4736 -90.5002 143° Southeast  Level FlightAware Approximate
07:49AM 11.3701 -90.4206 143° Southeast  Level FlightAware Approximate
07:50AM 11.2667 -90.3411 143° Southeast  Level FlightAware Approximate
07:51AM 11.1632 -90.2617 143° Southeast  Level FlightAware Approximate
07:52AM 11.0597 -90.1823 143° Southeast  Level FlightAware Approximate
07:53AM 10.9562 -90.1029 143° Southeast  Level FlightAware Approximate
07:54AM 10.8526 -90.0236 143° Southeast  Level FlightAware Approximate
07:55AM 10.7486 -89.9451 144° Southeast  Level FlightAware Approximate
07:56AM 10.6440 -89.8673 144° Southeast  Level FlightAware Approximate
07:57AM 10.5394 -89.7895 144° Southeast  Level FlightAware Approximate
07:58AM 10.4348 -89.7118 144° Southeast  Level FlightAware Approximate
07:59AM 10.3302 -89.6341 144° Southeast  Level FlightAware Approximate
08:00AM 10.2255 -89.5565 144° Southeast  Level FlightAware Approximate
08:01AM 10.1223 -89.4770 143° Southeast  Level FlightAware Approximate
08:02AM 10.0193 -89.3972 143° Southeast  Level FlightAware Approximate
08:03AM 9.9162 -89.3175 143° Southeast  Level FlightAware Approximate
08:04AM 9.8131 -89.2379 143° Southeast  Level FlightAware Approximate
08:05AM 9.7100 -89.1583 143° Southeast  Level FlightAware Approximate
08:06AM 9.6069 -89.0788 143° Southeast  Level FlightAware Approximate
08:07AM 9.5038 -88.9993 143° Southeast  Level FlightAware Approximate
08:08AM 9.4006 -88.9198 143° Southeast  Level FlightAware Approximate
08:09AM 9.2974 -88.8404 143° Southeast  Level FlightAware Approximate
08:10AM 9.1942 -88.7611 143° Southeast  Level FlightAware Approximate
08:11AM 9.0910 -88.6818 143° Southeast  Level FlightAware Approximate
08:12AM 8.9878 -88.6025 143° Southeast  Level FlightAware Approximate
08:13AM 8.8846 -88.5233 143° Southeast  Level FlightAware Approximate
08:14AM 8.7813 -88.4441 143° Southeast  Level FlightAware Approximate
08:15AM 8.6780 -88.3650 143° Southeast  Level FlightAware Approximate
08:16AM 8.5747 -88.2859 143° Southeast  Level FlightAware Approximate
08:17AM 8.4714 -88.2069 143° Southeast  Level FlightAware Approximate
08:18AM 8.3681 -88.1279 143° Southeast  Level FlightAware Approximate
08:19AM 8.2647 -88.0490 143° Southeast  Level FlightAware Approximate
08:20AM 8.1614 -87.9700 143° Southeast  Level FlightAware Approximate
08:21AM 8.0580 -87.8912 143° Southeast  Level FlightAware Approximate
08:22AM 7.9546 -87.8123 143° Southeast  Level FlightAware Approximate
08:23AM 7.8512 -87.7336 143° Southeast  Level FlightAware Approximate
08:24AM 7.7478 -87.6548 143° Southeast  Level FlightAware Approximate
08:25AM 7.6444 -87.5761 143° Southeast  Level FlightAware Approximate
08:26AM 7.5409 -87.4974 143° Southeast  Level FlightAware Approximate
08:27AM 7.4374 -87.4188 143° Southeast  Level FlightAware Approximate
08:28AM 7.3340 -87.3402 143° Southeast  Level FlightAware Approximate
08:29AM 7.2305 -87.2616 143° Southeast  Level FlightAware Approximate
08:30AM 7.1270 -87.1831 143° Southeast  Level FlightAware Approximate
08:31AM 7.0229 -87.1054 144° Southeast  Level FlightAware Approximate
08:32AM 6.9185 -87.0282 144° Southeast  Level FlightAware Approximate
08:33AM 6.8140 -86.9510 144° Southeast  Level FlightAware Approximate
08:34AM 6.7095 -86.8739 144° Southeast  Level FlightAware Approximate
08:35AM 6.6050 -86.7968 144° Southeast  Level FlightAware Approximate
08:36AM 6.5005 -86.7198 144° Southeast  Level FlightAware Approximate
08:37AM 6.3959 -86.6428 144° Southeast  Level FlightAware Approximate
08:38AM 6.2914 -86.5658 144° Southeast  Level FlightAware Approximate
08:39AM 6.1869 -86.4888 144° Southeast  Level FlightAware Approximate
08:40AM 6.0823 -86.4119 144° Southeast  Level FlightAware Approximate
08:41AM 5.9777 -86.3350 144° Southeast  Level FlightAware Approximate
08:42AM 5.8731 -86.2582 144° Southeast  Level FlightAware Approximate
08:43AM 5.7697 -86.1798 142° Southeast  Level FlightAware Approximate
08:44AM 5.6676 -86.0997 142° Southeast  Level FlightAware Approximate
08:45AM 5.5654 -86.0196 142° Southeast  Level FlightAware Approximate
08:46AM 5.4633 -85.9395 142° Southeast  Level FlightAware Approximate
08:47AM 5.3611 -85.8595 142° Southeast  Level FlightAware Approximate
08:48AM 5.2590 -85.7795 142° Southeast  Level FlightAware Approximate
08:49AM 5.1559 -85.7008 144° Southeast  Level FlightAware Approximate
08:50AM 5.0515 -85.6238 144° Southeast  Level FlightAware Approximate
08:51AM 4.9471 -85.5468 144° Southeast  Level FlightAware Approximate
08:52AM 4.8426 -85.4699 144° Southeast  Level FlightAware Approximate
08:53AM 4.7382 -85.3929 144° Southeast  Level FlightAware Approximate
08:54AM 4.6337 -85.3160 144° Southeast  Level FlightAware Approximate
08:55AM 4.5294 -85.2390 143° Southeast  Level FlightAware Approximate
08:56AM 4.4254 -85.1616 143° Southeast  Level FlightAware Approximate
08:57AM 4.3213 -85.0842 143° Southeast  Level FlightAware Approximate
08:58AM 4.2172 -85.0069 143° Southeast  Level FlightAware Approximate
08:59AM 4.1131 -84.9295 143° Southeast  Level FlightAware Approximate
09:00AM 4.0090 -84.8522 143° Southeast  Level FlightAware Approximate
09:01AM 3.9049 -84.7749 143° Southeast  Level FlightAware Approximate
09:02AM 3.8008 -84.6977 143° Southeast  Level FlightAware Approximate
09:03AM 3.6967 -84.6204 143° Southeast  Level FlightAware Approximate
09:04AM 3.5926 -84.5432 143° Southeast  Level FlightAware Approximate
09:05AM 3.4885 -84.4660 143° Southeast  Level FlightAware Approximate
09:06AM 3.3843 -84.3888 143° Southeast  Level FlightAware Approximate
09:07AM 3.2802 -84.3116 144° Southeast  Level FlightAware Approximate
09:08AM 3.1760 -84.2344 144° Southeast  Level FlightAware Approximate
09:09AM 3.0719 -84.1573 144° Southeast  Level FlightAware Approximate
09:10AM 2.9677 -84.0801 144° Southeast  Level FlightAware Approximate
09:11AM 2.8635 -84.0030 144° Southeast  Level FlightAware Approximate
09:12AM 2.7594 -83.9259 144° Southeast  Level FlightAware Approximate
09:13AM 2.6552 -83.8488 144° Southeast  Level FlightAware Approximate
09:14AM 2.5510 -83.7717 144° Southeast  Level FlightAware Approximate
09:15AM 2.4468 -83.6946 144° Southeast  Level FlightAware Approximate
09:16AM 2.3426 -83.6176 144° Southeast  Level FlightAware Approximate
09:17AM 2.2385 -83.5406 144° Southeast  Level FlightAware Approximate
09:18AM 2.1342 -83.4635 144° Southeast  Level FlightAware Approximate
09:19AM 2.0301 -83.3865 144° Southeast  Level FlightAware Approximate
09:20AM 1.9259 -83.3095 144° Southeast  Level FlightAware Approximate
09:21AM 1.8216 -83.2325 144° Southeast  Level FlightAware Approximate
09:22AM 1.7174 -83.1555 144° Southeast  Level FlightAware Approximate
09:23AM 1.6132 -83.0785 144° Southeast  Level FlightAware Approximate
09:24AM 1.5090 -83.0015 144° Southeast  Level FlightAware Approximate
09:25AM 1.4031 -82.9275 157° South  Level FlightAware Approximate
09:26AM 1.2840 -82.8766 157° South  Level FlightAware Approximate
09:27AM 1.1648 -82.8256 157° South  Level FlightAware Approximate
09:28AM 1.0457 -82.7747 157° South  Level FlightAware Approximate
09:29AM 0.9266 -82.7237 157° South  Level FlightAware Approximate
09:30AM 0.8075 -82.6728 157° South  Level FlightAware Approximate
09:31AM 0.6884 -82.6218 157° South  Level FlightAware Approximate
09:32AM 0.5693 -82.5709 157° South  Level FlightAware Approximate
09:33AM 0.4502 -82.5199 157° South  Level FlightAware Approximate
09:34AM 0.3311 -82.4690 157° South  Level FlightAware Approximate
09:35AM 0.2120 -82.4181 157° South  Level FlightAware Approximate
09:36AM 0.0928 -82.3671 157° South  Level FlightAware Approximate
09:37AM -0.0263 -82.3162 157° South  Level FlightAware Approximate
09:38AM -0.1454 -82.2653 157° South  Level FlightAware Approximate
09:39AM -0.2645 -82.2144 157° South  Level FlightAware Approximate
09:40AM -0.3837 -82.1634 157° South  Level FlightAware Approximate
09:41AM -0.5028 -82.1125 157° South  Level FlightAware Approximate
09:41AM -1.1060 -82.1590 157° South 488 562 37,000  Level FlightAware
09:42AM -0.6219 -82.0615 157° South  Level FlightAware Approximate
09:42AM -1.2020 -82.1280 162° South 488 562 37,000  Level FlightAware
09:43AM -1.2980 -82.1000 164° South 488 562 37,000  Level FlightAware
09:43AM -1.3630 -82.0800 163° South 487 560 37,000  Level FlightAware
09:44AM -1.4390 -82.0570 163° South 487 560 37,000  Level FlightAware
09:44AM -1.5140 -82.0330 162° South 487 560 37,000  Level FlightAware
09:45AM -1.5910 -82.0100 163° South 487 560 37,000  Level FlightAware
09:46AM -1.6610 -81.9880 163° South 487 560 37,000  Level FlightAware
09:46AM -1.7430 -81.9630 163° South 487 560 37,000  Level FlightAware
09:47AM -1.8070 -81.9420 162° South 487 560 37,000  Level FlightAware
09:47AM -1.8890 -81.9190 164° South 650 748 37,000  Level FlightAware
09:48AM -1.9840 -81.8900 163° South 488 562 37,000  Level FlightAware
09:49AM -2.0610 -81.8680 164° South 488 562 37,000  Level FlightAware
09:49AM -2.1470 -81.8490 168° South 486 559 37,000  Level FlightAware
09:50AM -2.2290 -81.8300 167° South 486 559 37,000  Level FlightAware
09:50AM -2.3110 -81.8140 169° South 484 557 37,000  Level FlightAware
09:51AM -2.3850 -81.7980 168° South 483 556 37,000  Level FlightAware
09:52AM -2.4660 -81.7810 168° South 483 556 37,000  Level FlightAware
09:52AM -2.5450 -81.7640 168° South 482 555 37,000  Level FlightAware
09:53AM -2.6140 -81.7500 169° South 482 555 37,000  Level FlightAware
09:53AM -2.6780 -81.7360 168° South 482 555 37,000  Level FlightAware
09:54AM -2.7640 -81.7180 168° South 482 555 37,000  Level FlightAware
09:55AM -2.8510 -81.7000 168° South 482 555 37,000  Level FlightAware
09:55AM -2.9330 -81.6820 168° South 482 555 37,000  Level FlightAware
09:56AM -2.9960 -81.6690 168° South 482 555 37,000  Level FlightAware
09:56AM -3.0760 -81.6520 168° South 483 556 37,000  Level FlightAware
09:57AM -3.1600 -81.6340 168° South 483 556 37,000  Level FlightAware
09:57AM -3.2360 -81.6180 168° South 483 556 37,000  Level FlightAware
09:58AM -3.3090 -81.6030 168° South 483 556 37,000  Level FlightAware
09:59AM -3.3870 -81.5850 167° South 484 557 37,000  Level FlightAware
09:59AM -3.4670 -81.5640 165° South 484 557 37,000  Level FlightAware
10:00AM -3.5390 -81.5440 165° South 484 557 37,000  Level FlightAware
10:00AM -3.6170 -81.5220 164° South 485 558 37,000  Level FlightAware
10:01AM -3.6860 -81.5030 165° South 484 557 37,000  Level FlightAware
10:01AM -3.7650 -81.4810 164° South 484 557 37,000  Level FlightAware
10:02AM -3.8380 -81.4600 164° South 485 558 37,000  Level FlightAware
10:03AM -3.9200 -81.4380 165° South 485 558 37,000  Level FlightAware
10:03AM -3.9970 -81.4150 163° South 485 558 37,000  Level FlightAware
10:04AM -4.0840 -81.3920 165° South 487 560 37,000  Level FlightAware
10:04AM -4.1430 -81.3750 164° South 486 559 37,000  Level FlightAware
10:05AM -4.2150 -81.3540 164° South 486 559 37,000  Level FlightAware
10:06AM -4.3240 -81.3240 165° South 486 559 37,000  Level FlightAware
10:07AM -4.3920 -81.3040 164° South 486 559 37,000  Level FlightAware
10:07AM -4.4580 -81.2850 164° South 486 559 37,000  Level FlightAware
10:08AM -4.5240 -81.2660 164° South 486 559 37,000  Level FlightAware
10:08AM -4.5920 -81.2470 164° South 486 559 37,000  Level FlightAware
10:09AM -4.6600 -81.2270 164° South 486 559 37,000  Level FlightAware
10:10AM -4.7260 -81.2080 164° South 486 559 37,000  Level FlightAware
10:10AM -4.7930 -81.1890 164° South 486 559 37,000  Level FlightAware
10:11AM -4.8400 -81.1750 163° South 486 559 37,000  Level FlightAware
10:11AM -4.9360 -81.1480 164° South 486 559 37,000  Level FlightAware
10:12AM -5.0020 -81.1290 164° South 486 559 37,000  Level FlightAware
10:13AM -5.0680 -81.1100 164° South 486 559 37,000  Level FlightAware
10:13AM -5.1340 -81.0910 164° South 486 559 37,000  Level FlightAware
10:14AM -5.1990 -81.0720 164° South 486 559 37,000  Level FlightAware
10:14AM -5.2650 -81.0530 164° South 486 559 37,000  Level FlightAware
10:15AM -5.3310 -81.0340 164° South 486 559 37,000 -540 Level FlightAware
10:18AM -5.6045 -80.8766 150° Southeast  Level Estimated
10:19AM -5.7169 -80.8118 150° Southeast  Level Estimated
10:20AM -5.8293 -80.7471 150° Southeast  Level Estimated
10:21AM -5.9417 -80.6823 150° Southeast  Level Estimated
10:22AM -6.0540 -80.6174 150° Southeast  Level Estimated
10:23AM -6.1664 -80.5526 150° Southeast  Level Estimated
10:24AM -6.2788 -80.4877 150° Southeast  Level Estimated
10:25AM -6.3911 -80.4228 150° Southeast  Level Estimated
10:26AM -6.5035 -80.3579 150° Southeast  Level Estimated
10:27AM -6.6158 -80.2929 150° Southeast  Level Estimated
10:28AM -6.7281 -80.2280 150° Southeast  Level Estimated
10:29AM -6.8404 -80.1629 150° Southeast  Level Estimated
10:30AM -6.9527 -80.0979 150° Southeast  Level Estimated
10:31AM -7.0650 -80.0328 150° Southeast  Level Estimated
10:32AM -7.1773 -79.9677 150° Southeast  Level Estimated
10:33AM -7.2896 -79.9025 150° Southeast  Level Estimated
10:34AM -7.4019 -79.8374 150° Southeast  Level Estimated
10:35AM -7.5141 -79.7722 150° Southeast  Level Estimated
10:36AM -7.6264 -79.7069 150° Southeast  Level Estimated
10:37AM -7.7386 -79.6416 150° Southeast  Level Estimated
10:38AM -7.8509 -79.5763 150° Southeast  Level Estimated
10:39AM -7.9631 -79.5110 150° Southeast  Level Estimated
10:40AM -8.0753 -79.4456 150° Southeast  Level Estimated
10:41AM -8.1875 -79.3802 150° Southeast  Level Estimated
10:42AM -8.2997 -79.3147 150° Southeast  Level Estimated
10:43AM -8.4118 -79.2492 150° Southeast  Level Estimated
10:44AM -8.5240 -79.1837 150° Southeast  Level Estimated
10:45AM -8.6362 -79.1181 150° Southeast  Level Estimated
10:46AM -8.7483 -79.0525 150° Southeast  Level Estimated
10:47AM -8.8604 -78.9869 150° Southeast  Level Estimated
10:48AM -8.9726 -78.9212 150° Southeast  Level Estimated
10:49AM -9.0847 -78.8555 150° Southeast  Level Estimated
10:50AM -9.1968 -78.7897 150° Southeast  Level Estimated
10:51AM -9.3089 -78.7239 150° Southeast  Level Estimated
10:52AM -9.4209 -78.6580 150° Southeast  Level Estimated
10:53AM -9.5330 -78.5921 150° Southeast  Level Estimated
10:54AM -9.6451 -78.5262 150° Southeast  Level Estimated
10:55AM -9.7571 -78.4602 150° Southeast  Level Estimated
10:56AM -9.8691 -78.3942 150° Southeast  Level Estimated
10:57AM -9.9811 -78.3281 150° Southeast  Level Estimated
10:58AM -10.0931 -78.2620 150° Southeast  Level Estimated
10:59AM -10.2051 -78.1958 150° Southeast  Level Estimated
11:00AM -10.3171 -78.1296 150° Southeast  Level Estimated
11:01AM -10.4290 -78.0633 150° Southeast  Level Estimated
11:02AM -10.5410 -77.9970 150° Southeast  Level Estimated
11:03AM -10.6529 -77.9307 150° Southeast  Level Estimated
11:04AM -10.7648 -77.8643 150° Southeast  Level Estimated
11:05AM -10.8767 -77.7978 150° Southeast  Level Estimated
11:06AM -10.9886 -77.7313 150° Southeast  Level Estimated
11:07AM -11.1005 -77.6648 150° Southeast  Level Estimated
11:08AM -11.2124 -77.5982 150° Southeast  Level Estimated
11:08AM -11.4260 -77.4070 150° Southeast 272 313 9,700  Level FlightAware
11:08AM -11.4470 -77.3970 155° Southeast 271 312 9,300 -1,200 Descending FlightAware
11:08AM -11.4740 -77.3840 155° Southeast 267 307 8,900 -960 Descending FlightAware
11:09AM -11.4970 -77.3730 155° Southeast 266 306 8,600 -1,140 Descending FlightAware
11:09AM -11.5210 -77.3600 152° Southeast 265 305 8,100 -600 Descending FlightAware
11:10AM -11.5470 -77.3470 154° Southeast 265 305 8,100 -1,080 Level FlightAware
11:10AM -11.5670 -77.3380 156° South 261 300 7,400 -1,800 Descending FlightAware
11:10AM -11.5810 -77.3310 154° Southeast 260 299 7,200 -300 Descending FlightAware
11:11AM -11.6080 -77.3180 155° Southeast 260 299 7,200  Level FlightAware
11:13AM -11.8288 -77.1939 154° Southeast  Level FlightAware Approximate
11:14AM -11.9487 -77.1439 159° South  Level FlightAware Approximate
11:15AM -12.0167 -77.1167 159° South  Level FlightAware Approximate
11:16AM -12.0219 -77.1143 159° South  Level Estimated
11:17AM -12.0167 -77.1167 159° South  Level FlightAware Approximate
11:18AM -12.0219 -77.1143 159° South  Level Estimated
11:19AM -12.0167 -77.1167 159° South  Level FlightAware Approximate
11:20AM -12.0219 -77.1143 159° South  Level Estimated
11:21AM -12.0167 -77.1167 159° South  Level FlightAware Approximate
11:22AM -12.0219 -77.1143 159° South  Level Estimated
11:23AM -12.0167 -77.1167 159° South  Level FlightAware Approximate
11:24AM -12.0219 -77.1143 159° South  Level Estimated
11:25AM -12.0167 -77.1167 159° South  Level FlightAware Approximate
11:26AM -12.0219 -77.1143 159° South  Level Estimated
11:27AM -12.0167 -77.1167 159° South  Level FlightAware Approximate
11:28AM -12.0219 -77.1143 159° South  Level Estimated
11:29AM -12.0167 -77.1167 159° South  Level FlightAware Approximate
11:30AM -12.0219 -77.1143 159° South  Level Estimated
11:31AM -12.0167 -77.1167 159° South  Level FlightAware Approximate
11:32AM -12.0219 -77.1143 159° South  Level Estimated
11:33AM -12.0167 -77.1167 159° South  Level FlightAware Approximate
11:34AM -12.0219 -77.1143 159° South  Level Estimated
11:35AM -12.0167 -77.1167 159° South  Level FlightAware Approximate
11:36AM -12.0219 -77.1143 159° South  Level Estimated
11:37AM -12.0167 -77.1167 159° South  Level FlightAware Approximate
11:38AM -12.0219 -77.1143 159° South  Level Estimated
11:39AM -12.0167 -77.1167 159° South  Level FlightAware Approximate
11:40AM -12.0219 -77.1143 159° South  Level Estimated